createdAt,value
2022-12-01T00:01:44.596Z,9.20
2022-12-01T00:03:47.735Z,9.30
2022-12-01T00:06:01.291Z,9.30
2022-12-01T00:08:05.163Z,9.20
2022-12-01T00:10:28.797Z,9.20
2022-12-01T00:12:31.892Z,9.30
2022-12-01T00:14:34.829Z,9.30
2022-12-01T00:16:38.388Z,9.30
2022-12-01T00:18:41.841Z,9.30
2022-12-01T00:20:44.723Z,9.20
2022-12-01T00:22:50.422Z,9.20
2022-12-01T00:24:53.381Z,9.10
2022-12-01T00:26:56.383Z,9.20
2022-12-01T00:29:00.642Z,9.20
2022-12-01T00:31:08.220Z,9.30
2022-12-01T00:33:11.250Z,9.30
2022-12-01T00:35:15.245Z,9.30
2022-12-01T00:37:18.417Z,9.20
2022-12-01T00:39:22.793Z,9.20
2022-12-01T00:41:27.882Z,9.20
2022-12-01T00:43:30.861Z,9.30
2022-12-01T00:45:33.815Z,9.30
2022-12-01T00:47:36.828Z,9.20
2022-12-01T00:49:39.783Z,9.30
2022-12-01T00:51:42.684Z,9.30
2022-12-01T00:53:45.970Z,9.30
2022-12-01T00:55:50.381Z,9.30
2022-12-01T00:57:53.309Z,9.30
2022-12-01T00:59:56.216Z,9.20
2022-12-01T01:01:59.159Z,9.10
2022-12-01T01:04:02.173Z,9.10
2022-12-01T01:06:06.908Z,9.10
2022-12-01T01:08:10.899Z,9.10
2022-12-01T01:10:13.913Z,9.10
2022-12-01T01:12:18.135Z,9.00
2022-12-01T01:14:21.727Z,9.00
2022-12-01T01:16:24.909Z,9.00
2022-12-01T01:18:27.061Z,9.10
2022-12-01T01:20:30.453Z,9.10
2022-12-01T01:22:33.378Z,9.10
2022-12-01T01:24:36.477Z,9.10
2022-12-01T01:26:39.502Z,9.10
2022-12-01T01:28:44.012Z,9.10
2022-12-01T01:30:47.616Z,9.00
2022-12-01T01:32:50.534Z,9.00
2022-12-01T01:34:53.453Z,8.90
2022-12-01T01:36:56.356Z,8.90
2022-12-01T01:38:59.258Z,8.90
2022-12-01T01:41:02.247Z,8.90
2022-12-01T01:43:14.697Z,8.90
2022-12-01T01:45:26.178Z,8.80
2022-12-01T01:47:33.451Z,8.80
2022-12-01T01:49:36.472Z,8.80
2022-12-01T01:51:47.664Z,8.70
2022-12-01T01:53:51.918Z,8.80
2022-12-01T01:55:54.887Z,8.80
2022-12-01T01:57:58.409Z,8.80
2022-12-01T02:00:07.439Z,8.80
2022-12-01T02:02:13.442Z,8.80
2022-12-01T02:04:17.564Z,8.70
2022-12-01T02:06:21.013Z,8.80
2022-12-01T02:08:23.923Z,8.70
2022-12-01T02:10:38.870Z,8.70
2022-12-01T02:12:54.432Z,8.70
2022-12-01T02:15:08.873Z,8.70
2022-12-01T02:17:23.698Z,8.70
2022-12-01T02:19:47.090Z,8.70
2022-12-01T02:22:02.323Z,8.70
2022-12-01T02:24:59.036Z,8.60
2022-12-01T02:27:08.670Z,8.60
2022-12-01T02:29:42.908Z,8.60
2022-12-01T02:31:56.292Z,8.60
2022-12-01T02:34:03.926Z,8.60
2022-12-01T02:36:16.507Z,8.50
2022-12-01T02:38:29.477Z,8.50
2022-12-01T02:40:39.449Z,8.50
2022-12-01T02:42:52.424Z,8.40
2022-12-01T02:44:56.652Z,8.50
2022-12-01T02:47:04.291Z,8.40
2022-12-01T02:49:11.935Z,8.40
2022-12-01T02:51:18.505Z,8.30
2022-12-01T02:53:21.470Z,8.30
2022-12-01T02:55:24.419Z,8.30
2022-12-01T02:57:27.325Z,8.20
2022-12-01T02:59:30.176Z,8.20
2022-12-01T03:01:52.764Z,8.20
2022-12-01T03:04:06.678Z,8.20
2022-12-01T03:06:15.775Z,8.20
2022-12-01T03:08:25.728Z,8.30
2022-12-01T03:10:38.264Z,8.30
2022-12-01T03:12:49.250Z,8.30
2022-12-01T03:15:03.253Z,8.30
2022-12-01T03:17:10.163Z,8.20
2022-12-01T03:19:20.232Z,8.20
2022-12-01T03:21:27.359Z,8.20
2022-12-01T03:23:34.406Z,8.20
2022-12-01T03:25:38.817Z,8.00
2022-12-01T03:28:13.389Z,8.00
2022-12-01T03:30:10.808Z,8.00
2022-12-01T03:32:19.880Z,8.00
2022-12-01T03:34:27.859Z,7.80
2022-12-01T03:36:34.926Z,7.80
2022-12-01T03:38:38.826Z,7.80
2022-12-01T03:40:42.549Z,7.80
2022-12-01T03:42:51.076Z,7.80
2022-12-01T03:44:57.223Z,7.80
2022-12-01T03:47:05.272Z,7.70
2022-12-01T03:49:08.921Z,7.60
2022-12-01T03:51:17.107Z,7.60
2022-12-01T03:53:25.132Z,7.60
2022-12-01T03:55:30.189Z,7.60
2022-12-01T03:57:37.333Z,7.60
2022-12-01T03:59:41.743Z,7.60
2022-12-01T04:01:46.092Z,7.60
2022-12-01T04:03:49.231Z,7.70
2022-12-01T04:05:52.510Z,7.70
2022-12-01T04:07:56.927Z,7.70
2022-12-01T04:09:59.912Z,7.70
2022-12-01T04:12:28.514Z,7.80
2022-12-01T04:14:31.407Z,7.80
2022-12-01T04:16:34.442Z,7.80
2022-12-01T04:18:37.338Z,7.80
2022-12-01T04:20:40.216Z,7.70
2022-12-01T04:22:43.331Z,7.70
2022-12-01T04:24:47.827Z,7.70
2022-12-01T04:26:50.688Z,7.80
2022-12-01T04:28:53.594Z,7.80
2022-12-01T04:30:56.494Z,7.80
2022-12-01T04:32:59.342Z,7.80
2022-12-01T04:35:02.223Z,7.80
2022-12-01T04:37:05.943Z,7.80
2022-12-01T04:39:08.956Z,7.80
2022-12-01T04:41:14.213Z,7.80
2022-12-01T04:43:17.097Z,7.70
2022-12-01T04:45:20.080Z,7.80
2022-12-01T04:47:22.940Z,7.80
2022-12-01T04:49:26.402Z,7.80
2022-12-01T04:51:29.260Z,7.80
2022-12-01T04:53:32.619Z,7.80
2022-12-01T04:55:38.903Z,7.80
2022-12-01T04:57:43.103Z,7.70
2022-12-01T04:59:45.958Z,7.70
2022-12-01T05:01:48.989Z,7.70
2022-12-01T05:03:51.975Z,7.70
2022-12-01T05:06:02.364Z,7.80
2022-12-01T05:08:05.677Z,7.80
2022-12-01T05:10:09.727Z,7.80
2022-12-01T05:12:12.604Z,7.80
2022-12-01T05:14:17.174Z,7.90
2022-12-01T05:16:22.237Z,7.80
2022-12-01T05:18:25.191Z,7.80
2022-12-01T05:20:46.685Z,7.90
2022-12-01T05:23:06.269Z,7.90
2022-12-01T05:25:09.784Z,7.90
2022-12-01T05:27:12.621Z,7.90
2022-12-01T05:29:16.829Z,7.80
2022-12-01T05:31:19.755Z,7.80
2022-12-01T05:33:22.820Z,7.80
2022-12-01T05:35:25.700Z,7.80
2022-12-01T05:37:32.199Z,7.80
2022-12-01T05:39:35.096Z,7.80
2022-12-01T05:41:37.949Z,7.80
2022-12-01T05:43:40.884Z,7.70
2022-12-01T05:45:45.138Z,7.60
2022-12-01T05:47:48.026Z,7.70
2022-12-01T05:49:51.157Z,7.70
2022-12-01T05:51:54.095Z,7.70
2022-12-01T05:53:56.936Z,7.80
2022-12-01T05:55:59.755Z,7.90
2022-12-01T05:58:02.854Z,7.90
2022-12-01T06:00:06.928Z,7.90
2022-12-01T06:02:11.327Z,7.90
2022-12-01T06:04:14.334Z,7.90
2022-12-01T06:06:17.498Z,7.80
2022-12-01T06:08:20.562Z,7.60
2022-12-01T06:10:23.677Z,7.60
2022-12-01T06:12:26.593Z,7.70
2022-12-01T06:14:29.459Z,7.80
2022-12-01T06:16:32.375Z,7.80
2022-12-01T06:18:38.508Z,7.80
2022-12-01T06:20:41.336Z,7.80
2022-12-01T06:22:44.414Z,7.80
2022-12-01T06:24:47.254Z,7.80
2022-12-01T06:26:50.072Z,7.80
2022-12-01T06:28:52.883Z,7.80
2022-12-01T06:31:02.619Z,7.90
2022-12-01T06:33:06.448Z,7.80
2022-12-01T06:35:12.487Z,7.80
2022-12-01T06:37:16.733Z,7.80
2022-12-01T06:39:19.682Z,7.90
2022-12-01T06:41:22.557Z,7.90
2022-12-01T06:43:25.420Z,7.90
2022-12-01T06:45:28.283Z,7.90
2022-12-01T06:47:31.129Z,7.90
2022-12-01T06:49:34.026Z,7.80
2022-12-01T06:51:38.305Z,7.80
2022-12-01T06:53:41.169Z,7.80
2022-12-01T06:55:43.979Z,7.80
2022-12-01T06:57:47.105Z,7.80
2022-12-01T06:59:50.633Z,7.80
2022-12-01T07:01:54.141Z,7.90
2022-12-01T07:03:57.055Z,8.00
2022-12-01T07:06:01.845Z,7.90
2022-12-01T07:08:06.823Z,7.90
2022-12-01T07:10:11.614Z,7.90
2022-12-01T07:12:14.569Z,7.90
2022-12-01T07:14:23.114Z,7.80
2022-12-01T07:16:26.500Z,7.80
2022-12-01T07:18:29.461Z,7.80
2022-12-01T07:20:32.358Z,7.80
2022-12-01T07:22:36.101Z,7.90
2022-12-01T07:24:40.280Z,7.90
2022-12-01T07:26:43.686Z,7.90
2022-12-01T07:28:47.069Z,7.80
2022-12-01T07:30:49.974Z,7.80
2022-12-01T07:32:52.946Z,7.80
2022-12-01T07:34:55.781Z,7.80
2022-12-01T07:36:58.646Z,7.70
2022-12-01T07:39:05.377Z,7.80
2022-12-01T07:41:11.857Z,7.90
2022-12-01T07:43:14.784Z,7.90
2022-12-01T07:45:17.680Z,7.80
2022-12-01T07:47:20.537Z,7.80
2022-12-01T07:49:23.390Z,7.80
2022-12-01T07:51:27.068Z,7.80
2022-12-01T07:53:29.948Z,7.80
2022-12-01T07:55:32.779Z,7.70
2022-12-01T07:57:36.946Z,7.70
2022-12-01T07:59:39.765Z,7.80
2022-12-01T08:01:44.641Z,7.80
2022-12-01T08:03:49.350Z,7.80
2022-12-01T08:05:58.291Z,7.90
2022-12-01T08:08:01.205Z,7.90
2022-12-01T08:10:04.552Z,7.90
2022-12-01T08:12:07.636Z,7.90
2022-12-01T08:14:11.828Z,7.90
2022-12-01T08:16:16.724Z,7.90
2022-12-01T08:18:19.551Z,7.90
2022-12-01T08:20:24.177Z,8.00
2022-12-01T08:22:27.141Z,8.00
2022-12-01T08:24:29.989Z,7.90
2022-12-01T08:26:33.837Z,7.80
2022-12-01T08:28:37.473Z,7.80
2022-12-01T08:30:41.820Z,7.90
2022-12-01T08:32:44.662Z,7.90
2022-12-01T08:34:53.121Z,8.00
2022-12-01T08:36:56.473Z,8.00
2022-12-01T08:39:00.184Z,7.90
2022-12-01T08:41:03.682Z,7.90
2022-12-01T08:43:06.666Z,8.00
2022-12-01T08:45:10.667Z,8.20
2022-12-01T08:47:18.728Z,8.20
2022-12-01T08:49:22.865Z,8.30
2022-12-01T08:51:26.006Z,8.30
2022-12-01T08:53:28.874Z,8.30
2022-12-01T08:55:31.756Z,8.40
2022-12-01T08:57:34.569Z,8.50
2022-12-01T08:59:37.476Z,8.60
2022-12-01T09:01:52.156Z,8.50
2022-12-01T09:04:06.711Z,8.50
2022-12-01T09:06:12.334Z,8.50
2022-12-01T09:08:34.092Z,8.50
2022-12-01T09:10:37.124Z,8.50
2022-12-01T09:12:39.985Z,8.50
2022-12-01T09:14:48.085Z,8.60
2022-12-01T09:16:52.003Z,8.60
2022-12-01T09:18:56.514Z,8.60
2022-12-01T09:20:59.906Z,8.70
2022-12-01T09:23:02.792Z,8.60
2022-12-01T09:25:08.173Z,8.60
2022-12-01T09:27:11.562Z,8.70
2022-12-01T09:29:16.467Z,8.70
2022-12-01T09:31:20.686Z,8.80
2022-12-01T09:33:23.630Z,8.70
2022-12-01T09:35:27.970Z,8.70
2022-12-01T09:37:30.799Z,8.70
2022-12-01T09:39:33.813Z,8.80
2022-12-01T09:41:40.359Z,8.80
2022-12-01T09:43:46.743Z,8.80
2022-12-01T09:45:55.733Z,8.90
2022-12-01T09:48:01.814Z,8.90
2022-12-01T09:50:07.836Z,8.90
2022-12-01T09:52:13.651Z,8.90
2022-12-01T09:54:16.664Z,9.00
2022-12-01T09:56:22.438Z,9.00
2022-12-01T09:58:30.855Z,9.00
2022-12-01T10:00:36.575Z,9.10
2022-12-01T10:02:43.524Z,9.20
2022-12-01T10:04:48.944Z,9.30
2022-12-01T10:06:56.415Z,9.40
2022-12-01T10:09:06.448Z,9.40
2022-12-01T10:11:25.612Z,9.30
2022-12-01T10:13:29.920Z,9.30
2022-12-01T10:15:46.184Z,9.40
2022-12-01T10:17:59.154Z,9.40
2022-12-01T10:20:07.159Z,9.50
2022-12-01T10:23:02.607Z,9.50
2022-12-01T10:25:14.432Z,9.50
2022-12-01T10:27:27.542Z,9.50
2022-12-01T10:29:44.992Z,9.40
2022-12-01T10:31:58.067Z,9.40
2022-12-01T10:34:04.042Z,9.40
2022-12-01T10:36:08.129Z,9.50
2022-12-01T10:38:20.944Z,9.50
2022-12-01T10:40:27.300Z,9.60
2022-12-01T10:42:35.558Z,9.80
2022-12-01T10:44:38.650Z,9.90
2022-12-01T10:46:45.459Z,10.00
2022-12-01T10:48:55.724Z,10.00
2022-12-01T10:51:16.059Z,10.10
2022-12-01T10:53:30.733Z,10.00
2022-12-01T10:55:40.881Z,10.00
2022-12-01T10:57:47.730Z,10.10
2022-12-01T10:59:53.218Z,10.20
2022-12-01T11:01:57.721Z,10.20
2022-12-01T11:04:04.708Z,10.30
2022-12-01T11:06:08.729Z,10.30
2022-12-01T11:08:23.102Z,10.40
2022-12-01T11:10:28.197Z,10.30
2022-12-01T11:12:33.856Z,10.10
2022-12-01T11:14:46.007Z,9.90
2022-12-01T11:16:51.894Z,9.90
2022-12-01T11:19:09.538Z,9.90
2022-12-01T11:21:14.968Z,10.00
2022-12-01T11:23:25.595Z,10.10
2022-12-01T11:25:28.503Z,10.10
2022-12-01T11:27:36.034Z,10.00
2022-12-01T11:29:40.964Z,9.90
2022-12-01T11:31:46.759Z,9.90
2022-12-01T11:33:53.297Z,9.80
2022-12-01T11:35:56.713Z,9.90
2022-12-01T11:40:28.894Z,10.10
2022-12-01T11:42:34.399Z,10.20
2022-12-01T11:44:51.396Z,10.20
2022-12-01T11:47:07.855Z,10.30
2022-12-01T11:49:20.757Z,10.30
2022-12-01T11:51:31.742Z,10.30
2022-12-01T11:53:36.413Z,10.30
2022-12-01T11:55:39.302Z,10.20
2022-12-01T11:57:46.785Z,10.30
2022-12-01T11:59:49.990Z,10.30
2022-12-01T12:02:11.469Z,10.30
2022-12-01T12:04:27.470Z,10.30
2022-12-01T12:06:40.249Z,10.40
2022-12-01T12:09:01.753Z,10.30
2022-12-01T12:11:13.870Z,10.40
2022-12-01T12:13:36.519Z,10.40
2022-12-01T12:15:53.559Z,10.30
2022-12-01T12:18:17.330Z,10.30
2022-12-01T12:20:35.668Z,10.20
2022-12-01T12:22:55.168Z,10.30
2022-12-01T12:25:11.209Z,10.30
2022-12-01T12:27:23.084Z,10.30
2022-12-01T12:29:49.318Z,10.20
2022-12-01T12:32:07.350Z,10.30
2022-12-01T12:34:23.165Z,10.40
2022-12-01T12:36:35.798Z,10.30
2022-12-01T12:38:52.487Z,10.10
2022-12-01T12:41:00.534Z,10.20
2022-12-01T12:43:19.644Z,10.10
2022-12-01T12:45:29.639Z,10.10
2022-12-01T12:47:46.764Z,10.10
2022-12-01T12:50:00.790Z,10.00
2022-12-01T12:52:09.134Z,10.00
2022-12-01T12:54:21.693Z,10.00
2022-12-01T12:56:27.978Z,9.90
2022-12-01T12:58:37.358Z,9.70
2022-12-01T13:00:45.415Z,9.70
2022-12-01T13:02:51.672Z,9.80
2022-12-01T13:05:01.177Z,9.70
2022-12-01T13:07:09.690Z,9.60
2022-12-01T13:09:16.858Z,9.60
2022-12-01T13:11:23.130Z,9.60
2022-12-01T13:13:30.564Z,9.60
2022-12-01T13:15:36.498Z,9.50
2022-12-01T13:17:44.742Z,9.50
2022-12-01T13:19:48.532Z,9.50
2022-12-01T13:21:52.999Z,9.50
2022-12-01T13:23:56.013Z,9.60
2022-12-01T13:26:01.976Z,9.50
2022-12-01T13:28:12.414Z,9.50
2022-12-01T13:30:21.106Z,9.50
2022-12-01T13:32:31.455Z,9.50
2022-12-01T13:34:40.885Z,9.60
2022-12-01T13:36:50.543Z,9.70
2022-12-01T13:38:59.885Z,9.60
2022-12-01T13:41:15.784Z,9.50
2022-12-01T13:43:21.171Z,9.10
2022-12-01T13:45:24.507Z,9.00
2022-12-01T13:47:40.545Z,9.10
2022-12-01T13:49:47.155Z,9.00
2022-12-01T13:52:32.791Z,8.90
2022-12-01T13:54:37.524Z,8.90
2022-12-01T13:56:47.588Z,8.90
2022-12-01T13:58:51.993Z,8.90
2022-12-01T14:01:10.091Z,8.90
2022-12-01T14:03:41.684Z,8.80
2022-12-01T14:05:52.052Z,8.70
2022-12-01T14:07:55.532Z,8.60
2022-12-01T14:10:17.792Z,8.60
2022-12-01T14:12:24.419Z,8.60
2022-12-01T14:14:29.373Z,8.60
2022-12-01T14:16:48.129Z,8.70
2022-12-01T14:18:54.878Z,8.70
2022-12-01T14:21:00.509Z,8.70
2022-12-01T14:23:18.432Z,8.70
2022-12-01T14:25:26.861Z,8.80
2022-12-01T14:27:38.898Z,8.70
2022-12-01T14:29:43.361Z,8.70
2022-12-01T14:32:06.965Z,8.60
2022-12-01T14:34:15.744Z,8.60
2022-12-01T14:36:34.926Z,8.70
2022-12-01T14:38:38.680Z,8.60
2022-12-01T14:40:41.770Z,8.70
2022-12-01T14:43:06.192Z,8.50
2022-12-01T14:45:14.114Z,8.50
2022-12-01T14:47:22.641Z,8.40
2022-12-01T14:49:30.400Z,8.40
2022-12-01T14:51:37.297Z,8.30
2022-12-01T14:53:45.541Z,8.30
2022-12-01T14:55:53.288Z,8.30
2022-12-01T14:58:06.138Z,8.20
2022-12-01T15:00:14.338Z,8.20
2022-12-01T15:02:17.881Z,8.20
2022-12-01T15:04:20.903Z,8.20
2022-12-01T15:06:25.565Z,8.30
2022-12-01T15:09:04.266Z,8.20
2022-12-01T15:10:55.977Z,8.20
2022-12-01T15:12:58.827Z,8.20
2022-12-01T15:15:02.686Z,8.20
2022-12-01T15:17:08.787Z,8.20
2022-12-01T15:19:31.540Z,8.10
2022-12-01T15:21:34.496Z,8.20
2022-12-01T15:23:52.792Z,8.20
2022-12-01T15:25:57.221Z,8.10
2022-12-01T15:28:05.389Z,8.00
2022-12-01T15:30:15.517Z,8.00
2022-12-01T15:32:19.473Z,7.80
2022-12-01T15:34:24.806Z,7.80
2022-12-01T15:36:27.823Z,7.60
2022-12-01T15:38:33.089Z,7.70
2022-12-01T15:43:06.060Z,7.80
2022-12-01T15:45:18.612Z,7.70
2022-12-01T15:47:35.933Z,7.70
2022-12-01T15:49:49.847Z,7.70
2022-12-01T15:51:53.500Z,7.70
2022-12-01T15:53:59.317Z,7.70
2022-12-01T15:56:07.302Z,7.70
2022-12-01T15:58:17.478Z,7.70
2022-12-01T16:00:20.910Z,7.70
2022-12-01T16:02:27.733Z,7.60
2022-12-01T16:04:33.163Z,7.60
2022-12-01T16:06:39.741Z,7.60
2022-12-01T16:08:43.028Z,7.60
2022-12-01T16:10:46.983Z,7.50
2022-12-01T16:12:51.216Z,7.60
2022-12-01T16:14:57.194Z,7.60
2022-12-01T16:17:00.560Z,7.60
2022-12-01T16:19:06.539Z,7.60
2022-12-01T16:21:11.242Z,7.60
2022-12-01T16:23:22.409Z,7.70
2022-12-01T16:25:31.317Z,7.70
2022-12-01T16:27:34.230Z,7.60
2022-12-01T16:29:49.062Z,7.60
2022-12-01T16:32:18.851Z,7.60
2022-12-01T16:34:44.094Z,7.40
2022-12-01T16:36:41.508Z,7.50
2022-12-01T16:38:44.337Z,7.40
2022-12-01T16:40:47.998Z,7.40
2022-12-01T16:42:51.169Z,7.30
2022-12-01T16:44:55.442Z,7.30
2022-12-01T16:46:58.302Z,7.30
2022-12-01T16:49:02.305Z,7.30
2022-12-01T16:51:07.728Z,7.30
2022-12-01T16:53:12.715Z,7.30
2022-12-01T16:55:30.009Z,7.30
2022-12-01T16:57:32.876Z,7.30
2022-12-01T16:59:35.718Z,7.30
2022-12-01T17:01:39.961Z,7.30
2022-12-01T17:03:42.889Z,7.40
2022-12-01T17:05:46.076Z,7.40
2022-12-01T17:07:49.290Z,7.40
2022-12-01T17:09:52.201Z,7.50
2022-12-01T17:11:56.277Z,7.40
2022-12-01T17:13:59.163Z,7.30
2022-12-01T17:16:06.031Z,7.20
2022-12-01T17:18:10.669Z,7.20
2022-12-01T17:20:14.223Z,7.20
2022-12-01T17:22:17.079Z,7.10
2022-12-01T17:24:19.990Z,7.20
2022-12-01T17:26:23.445Z,7.20
2022-12-01T17:28:26.543Z,7.20
2022-12-01T17:30:29.400Z,7.30
2022-12-01T17:32:32.583Z,7.20
2022-12-01T17:34:36.840Z,7.10
2022-12-01T17:36:39.772Z,7.10
2022-12-01T17:38:44.826Z,7.20
2022-12-01T17:40:59.541Z,7.20
2022-12-01T17:43:02.394Z,7.20
2022-12-01T17:45:06.071Z,7.10
2022-12-01T17:47:08.994Z,7.10
2022-12-01T17:49:13.227Z,7.10
2022-12-01T17:51:17.565Z,7.10
2022-12-01T17:53:20.507Z,7.10
2022-12-01T17:55:23.453Z,7.20
2022-12-01T17:57:26.613Z,7.20
2022-12-01T17:59:29.553Z,7.20
2022-12-01T18:01:32.569Z,7.30
2022-12-01T18:03:35.583Z,7.20
2022-12-01T18:05:38.469Z,7.20
2022-12-01T18:07:42.796Z,7.30
2022-12-01T18:09:45.928Z,7.30
2022-12-01T18:11:48.974Z,7.20
2022-12-01T18:13:52.642Z,7.20
2022-12-01T18:15:56.134Z,7.20
2022-12-01T18:17:59.043Z,7.20
2022-12-01T18:20:01.935Z,7.20
2022-12-01T18:22:04.783Z,7.20
2022-12-01T18:24:10.353Z,7.10
2022-12-01T18:26:16.055Z,7.10
2022-12-01T18:28:19.213Z,7.10
2022-12-01T18:30:22.114Z,7.10
2022-12-01T18:32:24.975Z,7.20
2022-12-01T18:34:29.478Z,7.10
2022-12-01T18:36:34.050Z,7.10
2022-12-01T18:38:36.918Z,7.10
2022-12-01T18:40:41.220Z,7.10
2022-12-01T18:42:44.094Z,7.10
2022-12-01T18:44:48.556Z,7.10
2022-12-01T18:46:51.713Z,7.00
2022-12-01T18:49:00.659Z,7.00
2022-12-01T18:51:04.820Z,7.10
2022-12-01T18:53:07.662Z,7.10
2022-12-01T18:55:10.954Z,7.10
2022-12-01T18:57:15.615Z,7.00
2022-12-01T18:59:18.469Z,7.00
2022-12-01T19:01:23.090Z,7.10
2022-12-01T19:03:26.738Z,7.10
2022-12-01T19:05:30.674Z,7.10
2022-12-01T19:07:33.689Z,7.00
2022-12-01T19:09:36.664Z,7.00
2022-12-01T19:11:41.461Z,6.90
2022-12-01T19:13:45.932Z,6.90
2022-12-01T19:15:50.274Z,6.90
2022-12-01T19:17:53.188Z,6.90
2022-12-01T19:19:56.085Z,6.90
2022-12-01T19:21:58.959Z,6.90
2022-12-01T19:24:01.865Z,6.80
2022-12-01T19:26:06.145Z,6.70
2022-12-01T19:28:09.160Z,6.70
2022-12-01T19:30:14.378Z,6.70
2022-12-01T19:32:17.371Z,6.60
2022-12-01T19:34:20.473Z,6.70
2022-12-01T19:36:25.780Z,6.70
2022-12-01T19:38:28.711Z,6.70
2022-12-01T19:40:31.604Z,6.70
2022-12-01T19:42:34.722Z,6.70
2022-12-01T19:44:37.630Z,6.70
2022-12-01T19:46:42.010Z,6.80
2022-12-01T19:48:45.689Z,6.80
2022-12-01T19:50:48.562Z,6.90
2022-12-01T19:52:51.559Z,6.90
2022-12-01T19:54:54.632Z,6.80
2022-12-01T19:56:57.695Z,6.90
2022-12-01T19:59:00.746Z,6.70
2022-12-01T20:01:05.141Z,6.70
2022-12-01T20:03:09.450Z,6.60
2022-12-01T20:05:12.438Z,6.50
2022-12-01T20:07:15.344Z,6.50
2022-12-01T20:09:18.270Z,6.60
2022-12-01T20:11:21.187Z,6.60
2022-12-01T20:13:24.093Z,6.40
2022-12-01T20:15:26.998Z,6.50
2022-12-01T20:17:30.512Z,6.40
2022-12-01T20:19:34.791Z,6.60
2022-12-01T20:21:43.000Z,6.60
2022-12-01T20:23:47.751Z,6.60
2022-12-01T20:25:50.739Z,6.60
2022-12-01T20:27:53.773Z,6.60
2022-12-01T20:29:56.829Z,6.60
2022-12-01T20:32:02.997Z,6.70
2022-12-01T20:34:12.372Z,6.60
2022-12-01T20:36:17.018Z,6.60
2022-12-01T20:38:25.784Z,6.60
2022-12-01T20:40:30.165Z,6.50
2022-12-01T20:42:33.047Z,6.60
2022-12-01T20:44:36.307Z,6.70
2022-12-01T20:46:41.071Z,6.60
2022-12-01T20:48:44.346Z,6.60
2022-12-01T20:50:47.371Z,6.60
2022-12-01T20:52:51.612Z,6.70
2022-12-01T20:54:54.586Z,6.70
2022-12-01T20:56:57.846Z,6.70
2022-12-01T20:59:01.464Z,6.70
2022-12-01T21:01:09.018Z,6.70
2022-12-01T21:03:12.414Z,6.70
2022-12-01T21:05:15.981Z,6.60
2022-12-01T21:07:19.060Z,6.60
2022-12-01T21:09:23.298Z,6.60
2022-12-01T21:11:42.502Z,6.60
2022-12-01T21:13:46.130Z,6.60
2022-12-01T21:15:58.623Z,6.70
2022-12-01T21:18:10.320Z,6.70
2022-12-01T21:20:21.924Z,6.70
2022-12-01T21:22:26.279Z,6.70
2022-12-01T21:24:36.754Z,6.70
2022-12-01T21:26:43.132Z,6.70
2022-12-01T21:28:46.913Z,6.70
2022-12-01T21:30:51.092Z,6.70
2022-12-01T21:32:54.920Z,6.70
2022-12-01T21:35:03.916Z,6.70
2022-12-01T21:37:11.954Z,6.70
2022-12-01T21:39:16.866Z,6.70
2022-12-01T21:41:25.552Z,6.70
2022-12-01T21:43:29.334Z,6.70
2022-12-01T21:45:34.501Z,6.70
2022-12-01T21:47:37.404Z,6.80
2022-12-01T21:49:40.808Z,6.80
2022-12-01T21:51:43.790Z,6.80
2022-12-01T21:53:48.197Z,6.80
2022-12-01T21:55:51.109Z,6.70
2022-12-01T21:57:55.823Z,6.70
2022-12-01T22:00:06.082Z,6.70
2022-12-01T22:02:33.002Z,6.80
2022-12-01T22:04:35.996Z,6.70
2022-12-01T22:06:41.112Z,6.70
2022-12-01T22:08:47.156Z,6.70
2022-12-01T22:10:55.756Z,6.70
2022-12-01T22:12:59.976Z,6.70
2022-12-01T22:15:11.847Z,6.60
2022-12-01T22:17:19.711Z,6.60
2022-12-01T22:19:27.799Z,6.60
2022-12-01T22:21:38.137Z,6.60
2022-12-01T22:23:41.008Z,6.70
2022-12-01T22:25:44.178Z,6.60
2022-12-01T22:27:47.085Z,6.60
2022-12-01T22:29:53.808Z,6.60
2022-12-01T22:32:35.821Z,6.50
2022-12-01T22:34:39.071Z,6.40
2022-12-01T22:36:42.073Z,6.40
2022-12-01T22:38:45.246Z,6.50
2022-12-01T22:40:56.143Z,6.60
2022-12-01T22:43:01.177Z,6.60
2022-12-01T22:45:23.626Z,6.60
2022-12-01T22:47:30.002Z,6.60
2022-12-01T22:49:32.934Z,6.60
2022-12-01T22:51:43.293Z,6.60
2022-12-01T22:53:47.101Z,6.60
2022-12-01T22:55:51.274Z,6.50
2022-12-01T22:57:55.022Z,6.50
2022-12-01T22:59:58.488Z,6.50
2022-12-01T23:02:07.505Z,6.50
2022-12-01T23:04:24.271Z,6.60
2022-12-01T23:06:57.160Z,6.50
2022-12-01T23:08:59.997Z,6.70
2022-12-01T23:11:03.030Z,6.70
2022-12-01T23:13:14.404Z,6.60
2022-12-01T23:15:31.668Z,6.50
2022-12-01T23:17:38.907Z,6.60
2022-12-01T23:19:41.881Z,6.60
2022-12-01T23:21:44.783Z,6.60
2022-12-01T23:23:47.666Z,6.60
2022-12-01T23:25:51.628Z,6.60
2022-12-01T23:27:56.261Z,6.60
2022-12-01T23:29:59.177Z,6.60
2022-12-01T23:32:02.241Z,6.70
2022-12-01T23:34:13.886Z,6.70
2022-12-01T23:36:19.678Z,6.70
2022-12-01T23:38:24.619Z,6.70
2022-12-01T23:40:31.598Z,6.70
2022-12-01T23:42:34.701Z,6.60
2022-12-01T23:44:40.507Z,6.60
2022-12-01T23:46:43.718Z,6.50
2022-12-01T23:48:49.640Z,6.50
2022-12-01T23:50:55.356Z,6.40
2022-12-01T23:52:58.620Z,6.50
2022-12-01T23:55:01.726Z,6.60
2022-12-01T23:57:11.703Z,6.60
2022-12-01T23:59:15.203Z,6.60
